sensor_id;sensor_type;location;lat;lon;timestamp;P1;durP1;ratioP1;P2;durP2;ratioP2
7807;SDS011;3949;49.254;8.894;2023-12-20T00:01:23;8.20;;;6.70;;
7807;SDS011;3949;49.254;8.894;2023-12-20T00:03:49;8.77;;;6.77;;
7807;SDS011;3949;49.254;8.894;2023-12-20T00:06:15;9.63;;;6.27;;
7807;SDS011;3949;49.254;8.894;2023-12-20T00:08:41;8.93;;;7.33;;
7807;SDS011;3949;49.254;8.894;2023-12-20T00:11:07;7.40;;;6.13;;
7807;SDS011;3949;49.254;8.894;2023-12-20T00:13:32;9.40;;;7.10;;
7807;SDS011;3949;49.254;8.894;2023-12-20T00:15:58;9.30;;;7.20;;
7807;SDS011;3949;49.254;8.894;2023-12-20T00:18:24;8.10;;;6.50;;
7807;SDS011;3949;49.254;8.894;2023-12-20T00:20:50;9.90;;;6.87;;
7807;SDS011;3949;49.254;8.894;2023-12-20T00:23:16;8.73;;;6.80;;
7807;SDS011;3949;49.254;8.894;2023-12-20T00:25:42;8.83;;;6.97;;
7807;SDS011;3949;49.254;8.894;2023-12-20T00:28:08;8.90;;;6.70;;
7807;SDS011;3949;49.254;8.894;2023-12-20T00:30:34;9.27;;;6.87;;
7807;SDS011;3949;49.254;8.894;2023-12-20T00:33:01;9.00;;;6.57;;
7807;SDS011;3949;49.254;8.894;2023-12-20T00:35:27;9.43;;;6.80;;
7807;SDS011;3949;49.254;8.894;2023-12-20T00:37:53;10.67;;;6.60;;
7807;SDS011;3949;49.254;8.894;2023-12-20T00:40:19;9.87;;;7.07;;
7807;SDS011;3949;49.254;8.894;2023-12-20T00:42:45;8.93;;;6.40;;
7807;SDS011;3949;49.254;8.894;2023-12-20T00:45:12;8.43;;;6.83;;
7807;SDS011;3949;49.254;8.894;2023-12-20T00:47:39;8.43;;;6.77;;
7807;SDS011;3949;49.254;8.894;2023-12-20T00:50:05;8.47;;;6.67;;
7807;SDS011;3949;49.254;8.894;2023-12-20T00:52:31;9.33;;;6.47;;
7807;SDS011;3949;49.254;8.894;2023-12-20T00:54:57;7.47;;;6.47;;
7807;SDS011;3949;49.254;8.894;2023-12-20T00:57:23;8.80;;;6.47;;
7807;SDS011;3949;49.254;8.894;2023-12-20T00:59:50;7.70;;;6.20;;
7807;SDS011;3949;49.254;8.894;2023-12-20T01:02:16;7.40;;;6.13;;
7807;SDS011;3949;49.254;8.894;2023-12-20T01:04:42;8.50;;;6.03;;
7807;SDS011;3949;49.254;8.894;2023-12-20T01:07:08;7.77;;;6.47;;
7807;SDS011;3949;49.254;8.894;2023-12-20T01:09:34;7.37;;;6.10;;
7807;SDS011;3949;49.254;8.894;2023-12-20T01:12:00;6.67;;;5.67;;
7807;SDS011;3949;49.254;8.894;2023-12-20T01:14:26;7.40;;;5.90;;
7807;SDS011;3949;49.254;8.894;2023-12-20T01:16:52;8.57;;;5.20;;
7807;SDS011;3949;49.254;8.894;2023-12-20T01:19:19;8.40;;;6.20;;
7807;SDS011;3949;49.254;8.894;2023-12-20T01:21:45;6.73;;;5.70;;
7807;SDS011;3949;49.254;8.894;2023-12-20T01:24:11;7.10;;;5.67;;
7807;SDS011;3949;49.254;8.894;2023-12-20T01:26:37;6.93;;;5.53;;
7807;SDS011;3949;49.254;8.894;2023-12-20T01:29:03;7.00;;;5.67;;
7807;SDS011;3949;49.254;8.894;2023-12-20T01:31:29;6.93;;;5.57;;
7807;SDS011;3949;49.254;8.894;2023-12-20T01:33:54;5.30;;;4.80;;
7807;SDS011;3949;49.254;8.894;2023-12-20T01:36:21;5.67;;;4.80;;
7807;SDS011;3949;49.254;8.894;2023-12-20T01:38:47;5.73;;;4.87;;
7807;SDS011;3949;49.254;8.894;2023-12-20T01:41:13;4.87;;;4.30;;
7807;SDS011;3949;49.254;8.894;2023-12-20T01:43:39;5.20;;;4.13;;
7807;SDS011;3949;49.254;8.894;2023-12-20T01:46:05;4.57;;;4.10;;
7807;SDS011;3949;49.254;8.894;2023-12-20T01:48:31;4.40;;;4.00;;
7807;SDS011;3949;49.254;8.894;2023-12-20T01:50:57;4.40;;;3.90;;
7807;SDS011;3949;49.254;8.894;2023-12-20T01:53:23;4.53;;;3.77;;
7807;SDS011;3949;49.254;8.894;2023-12-20T01:55:51;4.40;;;3.90;;
7807;SDS011;3949;49.254;8.894;2023-12-20T01:58:18;4.37;;;3.53;;
7807;SDS011;3949;49.254;8.894;2023-12-20T02:00:44;3.70;;;3.30;;
7807;SDS011;3949;49.254;8.894;2023-12-20T02:03:10;4.03;;;3.37;;
7807;SDS011;3949;49.254;8.894;2023-12-20T02:05:37;3.60;;;3.30;;
7807;SDS011;3949;49.254;8.894;2023-12-20T02:08:03;4.37;;;3.27;;
7807;SDS011;3949;49.254;8.894;2023-12-20T02:10:30;3.47;;;3.00;;
7807;SDS011;3949;49.254;8.894;2023-12-20T02:12:57;3.53;;;3.23;;
7807;SDS011;3949;49.254;8.894;2023-12-20T02:15:23;4.63;;;3.37;;
7807;SDS011;3949;49.254;8.894;2023-12-20T02:17:49;4.20;;;3.57;;
7807;SDS011;3949;49.254;8.894;2023-12-20T02:20:16;3.50;;;3.20;;
7807;SDS011;3949;49.254;8.894;2023-12-20T02:22:42;3.83;;;3.30;;
7807;SDS011;3949;49.254;8.894;2023-12-20T02:25:08;3.90;;;3.50;;
7807;SDS011;3949;49.254;8.894;2023-12-20T02:27:34;4.27;;;3.70;;
7807;SDS011;3949;49.254;8.894;2023-12-20T02:30:00;5.00;;;3.90;;
7807;SDS011;3949;49.254;8.894;2023-12-20T02:32:26;4.07;;;3.67;;
7807;SDS011;3949;49.254;8.894;2023-12-20T02:34:54;4.63;;;3.63;;
7807;SDS011;3949;49.254;8.894;2023-12-20T02:37:20;4.10;;;3.27;;
7807;SDS011;3949;49.254;8.894;2023-12-20T02:39:46;4.57;;;3.93;;
7807;SDS011;3949;49.254;8.894;2023-12-20T02:42:12;4.40;;;3.97;;
7807;SDS011;3949;49.254;8.894;2023-12-20T02:44:38;3.77;;;3.17;;
7807;SDS011;3949;49.254;8.894;2023-12-20T02:47:04;3.97;;;3.57;;
7807;SDS011;3949;49.254;8.894;2023-12-20T02:49:30;3.80;;;3.50;;
7807;SDS011;3949;49.254;8.894;2023-12-20T02:51:56;4.00;;;3.70;;
7807;SDS011;3949;49.254;8.894;2023-12-20T02:54:22;3.60;;;3.30;;
7807;SDS011;3949;49.254;8.894;2023-12-20T02:56:48;4.20;;;3.63;;
7807;SDS011;3949;49.254;8.894;2023-12-20T02:59:14;3.70;;;3.33;;
7807;SDS011;3949;49.254;8.894;2023-12-20T03:01:43;4.70;;;4.13;;
7807;SDS011;3949;49.254;8.894;2023-12-20T03:04:09;3.93;;;3.53;;
7807;SDS011;3949;49.254;8.894;2023-12-20T03:06:38;4.23;;;3.83;;
7807;SDS011;3949;49.254;8.894;2023-12-20T03:09:04;4.37;;;3.83;;
7807;SDS011;3949;49.254;8.894;2023-12-20T03:11:30;4.63;;;3.80;;
7807;SDS011;3949;49.254;8.894;2023-12-20T03:13:56;5.07;;;3.93;;
7807;SDS011;3949;49.254;8.894;2023-12-20T03:16:23;3.73;;;3.37;;
7807;SDS011;3949;49.254;8.894;2023-12-20T03:18:49;4.67;;;4.07;;
7807;SDS011;3949;49.254;8.894;2023-12-20T03:21:15;3.70;;;3.40;;
7807;SDS011;3949;49.254;8.894;2023-12-20T03:23:41;4.67;;;3.80;;
7807;SDS011;3949;49.254;8.894;2023-12-20T03:26:08;4.13;;;3.30;;
7807;SDS011;3949;49.254;8.894;2023-12-20T03:28:34;4.40;;;3.30;;
7807;SDS011;3949;49.254;8.894;2023-12-20T03:31:01;3.57;;;2.97;;
7807;SDS011;3949;49.254;8.894;2023-12-20T03:33:28;3.27;;;2.97;;
7807;SDS011;3949;49.254;8.894;2023-12-20T03:35:54;3.20;;;2.90;;
7807;SDS011;3949;49.254;8.894;2023-12-20T03:38:20;3.50;;;3.17;;
7807;SDS011;3949;49.254;8.894;2023-12-20T03:40:46;3.73;;;3.33;;
7807;SDS011;3949;49.254;8.894;2023-12-20T03:43:12;2.97;;;2.63;;
7807;SDS011;3949;49.254;8.894;2023-12-20T03:45:38;3.33;;;3.03;;
7807;SDS011;3949;49.254;8.894;2023-12-20T03:48:04;3.07;;;2.80;;
7807;SDS011;3949;49.254;8.894;2023-12-20T03:50:30;3.07;;;2.53;;
7807;SDS011;3949;49.254;8.894;2023-12-20T03:52:56;3.13;;;2.90;;
7807;SDS011;3949;49.254;8.894;2023-12-20T03:55:22;3.00;;;2.70;;
7807;SDS011;3949;49.254;8.894;2023-12-20T03:57:48;2.90;;;2.63;;
7807;SDS011;3949;49.254;8.894;2023-12-20T04:00:14;5.63;;;4.07;;
7807;SDS011;3949;49.254;8.894;2023-12-20T04:02:41;3.53;;;3.10;;
7807;SDS011;3949;49.254;8.894;2023-12-20T04:05:07;3.43;;;3.00;;
7807;SDS011;3949;49.254;8.894;2023-12-20T04:07:35;3.30;;;3.00;;
7807;SDS011;3949;49.254;8.894;2023-12-20T04:10:01;4.23;;;3.50;;
7807;SDS011;3949;49.254;8.894;2023-12-20T04:12:28;4.03;;;3.20;;
7807;SDS011;3949;49.254;8.894;2023-12-20T04:14:54;3.53;;;3.20;;
7807;SDS011;3949;49.254;8.894;2023-12-20T04:17:20;3.60;;;3.30;;
7807;SDS011;3949;49.254;8.894;2023-12-20T04:19:48;2.93;;;2.67;;
7807;SDS011;3949;49.254;8.894;2023-12-20T04:22:14;3.93;;;3.10;;
7807;SDS011;3949;49.254;8.894;2023-12-20T04:24:39;3.47;;;3.10;;
7807;SDS011;3949;49.254;8.894;2023-12-20T04:27:07;3.50;;;3.03;;
7807;SDS011;3949;49.254;8.894;2023-12-20T04:29:33;2.53;;;2.33;;
7807;SDS011;3949;49.254;8.894;2023-12-20T04:31:59;2.80;;;2.60;;
7807;SDS011;3949;49.254;8.894;2023-12-20T04:34:25;2.80;;;2.50;;
7807;SDS011;3949;49.254;8.894;2023-12-20T04:36:51;2.73;;;2.53;;
7807;SDS011;3949;49.254;8.894;2023-12-20T04:39:17;3.03;;;2.73;;
7807;SDS011;3949;49.254;8.894;2023-12-20T04:41:43;2.53;;;2.33;;
7807;SDS011;3949;49.254;8.894;2023-12-20T04:44:09;3.20;;;2.50;;
7807;SDS011;3949;49.254;8.894;2023-12-20T04:46:35;2.63;;;2.43;;
7807;SDS011;3949;49.254;8.894;2023-12-20T04:49:01;2.47;;;2.27;;
7807;SDS011;3949;49.254;8.894;2023-12-20T04:51:27;3.87;;;3.13;;
7807;SDS011;3949;49.254;8.894;2023-12-20T04:53:53;3.83;;;3.10;;
7807;SDS011;3949;49.254;8.894;2023-12-20T04:56:19;3.27;;;2.80;;
7807;SDS011;3949;49.254;8.894;2023-12-20T04:58:45;3.23;;;2.93;;
7807;SDS011;3949;49.254;8.894;2023-12-20T05:01:12;3.30;;;3.00;;
7807;SDS011;3949;49.254;8.894;2023-12-20T05:03:38;2.57;;;2.37;;
7807;SDS011;3949;49.254;8.894;2023-12-20T05:06:04;3.47;;;2.60;;
7807;SDS011;3949;49.254;8.894;2023-12-20T05:08:30;2.43;;;2.23;;
7807;SDS011;3949;49.254;8.894;2023-12-20T05:10:56;3.87;;;2.17;;
7807;SDS011;3949;49.254;8.894;2023-12-20T05:13:22;2.57;;;2.37;;
7807;SDS011;3949;49.254;8.894;2023-12-20T05:15:48;2.50;;;2.23;;
7807;SDS011;3949;49.254;8.894;2023-12-20T05:18:14;2.70;;;2.50;;
7807;SDS011;3949;49.254;8.894;2023-12-20T05:20:40;2.30;;;2.10;;
7807;SDS011;3949;49.254;8.894;2023-12-20T05:23:06;2.70;;;2.43;;
7807;SDS011;3949;49.254;8.894;2023-12-20T05:25:33;4.00;;;2.87;;
7807;SDS011;3949;49.254;8.894;2023-12-20T05:27:59;3.30;;;3.00;;
7807;SDS011;3949;49.254;8.894;2023-12-20T05:30:25;3.33;;;3.03;;
7807;SDS011;3949;49.254;8.894;2023-12-20T05:32:51;3.13;;;2.83;;
7807;SDS011;3949;49.254;8.894;2023-12-20T05:35:17;3.90;;;3.50;;
7807;SDS011;3949;49.254;8.894;2023-12-20T05:37:44;3.17;;;2.87;;
7807;SDS011;3949;49.254;8.894;2023-12-20T05:40:10;3.30;;;3.00;;
7807;SDS011;3949;49.254;8.894;2023-12-20T05:42:37;3.43;;;3.13;;
7807;SDS011;3949;49.254;8.894;2023-12-20T05:45:04;3.40;;;3.10;;
7807;SDS011;3949;49.254;8.894;2023-12-20T05:47:30;4.00;;;3.20;;
7807;SDS011;3949;49.254;8.894;2023-12-20T05:49:56;3.97;;;3.37;;
7807;SDS011;3949;49.254;8.894;2023-12-20T05:52:22;3.40;;;3.10;;
7807;SDS011;3949;49.254;8.894;2023-12-20T05:54:48;3.70;;;3.30;;
7807;SDS011;3949;49.254;8.894;2023-12-20T05:57:14;3.43;;;3.13;;
7807;SDS011;3949;49.254;8.894;2023-12-20T05:59:40;3.40;;;3.10;;
7807;SDS011;3949;49.254;8.894;2023-12-20T06:02:06;4.40;;;3.17;;
7807;SDS011;3949;49.254;8.894;2023-12-20T06:04:32;3.47;;;3.17;;
7807;SDS011;3949;49.254;8.894;2023-12-20T06:06:58;3.87;;;3.40;;
7807;SDS011;3949;49.254;8.894;2023-12-20T06:09:25;3.73;;;3.43;;
7807;SDS011;3949;49.254;8.894;2023-12-20T06:11:51;3.50;;;3.20;;
7807;SDS011;3949;49.254;8.894;2023-12-20T06:14:16;4.57;;;3.97;;
7807;SDS011;3949;49.254;8.894;2023-12-20T06:16:42;4.10;;;3.43;;
7807;SDS011;3949;49.254;8.894;2023-12-20T06:19:10;4.33;;;3.93;;
7807;SDS011;3949;49.254;8.894;2023-12-20T06:21:36;4.17;;;3.77;;
7807;SDS011;3949;49.254;8.894;2023-12-20T06:24:02;4.23;;;3.67;;
7807;SDS011;3949;49.254;8.894;2023-12-20T06:26:28;4.43;;;4.03;;
7807;SDS011;3949;49.254;8.894;2023-12-20T06:28:54;3.83;;;3.47;;
7807;SDS011;3949;49.254;8.894;2023-12-20T06:31:20;4.07;;;3.67;;
7807;SDS011;3949;49.254;8.894;2023-12-20T06:33:46;3.63;;;3.00;;
7807;SDS011;3949;49.254;8.894;2023-12-20T06:36:14;3.70;;;3.30;;
7807;SDS011;3949;49.254;8.894;2023-12-20T06:38:40;4.23;;;3.80;;
7807;SDS011;3949;49.254;8.894;2023-12-20T06:41:12;4.00;;;3.60;;
7807;SDS011;3949;49.254;8.894;2023-12-20T06:43:39;3.37;;;3.07;;
7807;SDS011;3949;49.254;8.894;2023-12-20T06:46:05;3.67;;;3.37;;
7807;SDS011;3949;49.254;8.894;2023-12-20T06:48:32;4.63;;;3.77;;
7807;SDS011;3949;49.254;8.894;2023-12-20T06:50:59;3.93;;;3.50;;
7807;SDS011;3949;49.254;8.894;2023-12-20T06:53:25;4.03;;;3.63;;
7807;SDS011;3949;49.254;8.894;2023-12-20T06:55:51;4.03;;;3.30;;
7807;SDS011;3949;49.254;8.894;2023-12-20T06:58:17;3.43;;;3.13;;
7807;SDS011;3949;49.254;8.894;2023-12-20T07:00:43;3.33;;;3.03;;
7807;SDS011;3949;49.254;8.894;2023-12-20T07:03:09;5.40;;;3.60;;
7807;SDS011;3949;49.254;8.894;2023-12-20T07:05:35;4.07;;;3.43;;
7807;SDS011;3949;49.254;8.894;2023-12-20T07:08:01;4.70;;;3.57;;
7807;SDS011;3949;49.254;8.894;2023-12-20T07:10:27;4.07;;;3.40;;
7807;SDS011;3949;49.254;8.894;2023-12-20T07:12:53;3.93;;;3.50;;
7807;SDS011;3949;49.254;8.894;2023-12-20T07:15:20;3.93;;;3.57;;
7807;SDS011;3949;49.254;8.894;2023-12-20T07:17:46;4.47;;;3.50;;
7807;SDS011;3949;49.254;8.894;2023-12-20T07:20:12;4.13;;;3.73;;
7807;SDS011;3949;49.254;8.894;2023-12-20T07:22:38;4.30;;;3.40;;
7807;SDS011;3949;49.254;8.894;2023-12-20T07:25:04;4.10;;;3.43;;
7807;SDS011;3949;49.254;8.894;2023-12-20T07:27:30;5.00;;;3.93;;
7807;SDS011;3949;49.254;8.894;2023-12-20T07:29:56;6.37;;;3.60;;
7807;SDS011;3949;49.254;8.894;2023-12-20T07:32:22;4.27;;;3.87;;
7807;SDS011;3949;49.254;8.894;2023-12-20T07:34:48;4.50;;;4.03;;
7807;SDS011;3949;49.254;8.894;2023-12-20T07:37:14;4.20;;;3.80;;
7807;SDS011;3949;49.254;8.894;2023-12-20T07:39:41;4.03;;;3.63;;
7807;SDS011;3949;49.254;8.894;2023-12-20T07:42:07;4.13;;;3.70;;
7807;SDS011;3949;49.254;8.894;2023-12-20T07:44:34;4.00;;;3.60;;
7807;SDS011;3949;49.254;8.894;2023-12-20T07:47:03;3.97;;;3.57;;
7807;SDS011;3949;49.254;8.894;2023-12-20T07:49:30;4.40;;;4.00;;
7807;SDS011;3949;49.254;8.894;2023-12-20T07:51:56;5.07;;;3.63;;
7807;SDS011;3949;49.254;8.894;2023-12-20T07:54:22;4.03;;;3.53;;
7807;SDS011;3949;49.254;8.894;2023-12-20T07:56:48;4.40;;;4.00;;
7807;SDS011;3949;49.254;8.894;2023-12-20T07:59:14;3.83;;;3.43;;
7807;SDS011;3949;49.254;8.894;2023-12-20T08:01:41;3.50;;;3.20;;
7807;SDS011;3949;49.254;8.894;2023-12-20T08:04:07;4.13;;;3.70;;
7807;SDS011;3949;49.254;8.894;2023-12-20T08:06:33;3.60;;;3.30;;
7807;SDS011;3949;49.254;8.894;2023-12-20T08:08:59;3.73;;;3.43;;
7807;SDS011;3949;49.254;8.894;2023-12-20T08:11:25;4.40;;;3.90;;
7807;SDS011;3949;49.254;8.894;2023-12-20T08:13:51;4.50;;;4.10;;
7807;SDS011;3949;49.254;8.894;2023-12-20T08:16:17;4.10;;;3.70;;
7807;SDS011;3949;49.254;8.894;2023-12-20T08:18:43;4.27;;;3.87;;
7807;SDS011;3949;49.254;8.894;2023-12-20T08:21:10;4.40;;;3.57;;
7807;SDS011;3949;49.254;8.894;2023-12-20T08:23:36;5.03;;;3.97;;
7807;SDS011;3949;49.254;8.894;2023-12-20T08:26:06;4.80;;;3.70;;
7807;SDS011;3949;49.254;8.894;2023-12-20T08:28:32;4.10;;;3.70;;
7807;SDS011;3949;49.254;8.894;2023-12-20T08:30:58;4.20;;;3.47;;
7807;SDS011;3949;49.254;8.894;2023-12-20T08:33:24;3.43;;;3.13;;
7807;SDS011;3949;49.254;8.894;2023-12-20T08:35:50;3.50;;;3.13;;
7807;SDS011;3949;49.254;8.894;2023-12-20T08:38:16;3.47;;;3.17;;
7807;SDS011;3949;49.254;8.894;2023-12-20T08:40:43;3.03;;;2.77;;
7807;SDS011;3949;49.254;8.894;2023-12-20T08:43:09;3.33;;;3.03;;
7807;SDS011;3949;49.254;8.894;2023-12-20T08:45:35;3.23;;;2.90;;
7807;SDS011;3949;49.254;8.894;2023-12-20T08:48:01;3.20;;;2.90;;
7807;SDS011;3949;49.254;8.894;2023-12-20T08:50:28;3.97;;;3.33;;
7807;SDS011;3949;49.254;8.894;2023-12-20T08:52:54;4.60;;;2.80;;
7807;SDS011;3949;49.254;8.894;2023-12-20T08:55:20;3.60;;;2.70;;
7807;SDS011;3949;49.254;8.894;2023-12-20T08:57:46;4.47;;;2.50;;
7807;SDS011;3949;49.254;8.894;2023-12-20T09:00:12;3.57;;;2.33;;
7807;SDS011;3949;49.254;8.894;2023-12-20T09:02:38;3.27;;;2.60;;
7807;SDS011;3949;49.254;8.894;2023-12-20T09:05:05;3.10;;;2.80;;
7807;SDS011;3949;49.254;8.894;2023-12-20T09:07:31;2.93;;;2.63;;
7807;SDS011;3949;49.254;8.894;2023-12-20T09:09:57;3.03;;;2.53;;
7807;SDS011;3949;49.254;8.894;2023-12-20T09:12:24;3.57;;;2.73;;
7807;SDS011;3949;49.254;8.894;2023-12-20T09:14:50;6.53;;;4.03;;
7807;SDS011;3949;49.254;8.894;2023-12-20T09:17:17;6.17;;;2.90;;
7807;SDS011;3949;49.254;8.894;2023-12-20T09:19:43;3.23;;;2.40;;
7807;SDS011;3949;49.254;8.894;2023-12-20T09:22:09;2.57;;;2.17;;
7807;SDS011;3949;49.254;8.894;2023-12-20T09:24:36;2.30;;;2.07;;
7807;SDS011;3949;49.254;8.894;2023-12-20T09:27:03;1.90;;;1.80;;
7807;SDS011;3949;49.254;8.894;2023-12-20T09:29:30;1.97;;;1.83;;
7807;SDS011;3949;49.254;8.894;2023-12-20T09:31:56;3.93;;;1.90;;
7807;SDS011;3949;49.254;8.894;2023-12-20T09:34:22;3.97;;;2.00;;
7807;SDS011;3949;49.254;8.894;2023-12-20T09:36:49;3.07;;;1.87;;
7807;SDS011;3949;49.254;8.894;2023-12-20T09:39:15;3.17;;;2.50;;
7807;SDS011;3949;49.254;8.894;2023-12-20T09:41:45;3.20;;;2.00;;
7807;SDS011;3949;49.254;8.894;2023-12-20T09:44:14;3.13;;;2.13;;
7807;SDS011;3949;49.254;8.894;2023-12-20T09:46:42;3.80;;;2.20;;
7807;SDS011;3949;49.254;8.894;2023-12-20T09:49:09;3.57;;;2.57;;
7807;SDS011;3949;49.254;8.894;2023-12-20T09:51:36;4.77;;;2.07;;
7807;SDS011;3949;49.254;8.894;2023-12-20T09:54:05;3.07;;;2.27;;
7807;SDS011;3949;49.254;8.894;2023-12-20T09:56:31;3.27;;;2.07;;
7807;SDS011;3949;49.254;8.894;2023-12-20T09:58:57;6.20;;;2.10;;
7807;SDS011;3949;49.254;8.894;2023-12-20T10:01:23;3.53;;;2.10;;
7807;SDS011;3949;49.254;8.894;2023-12-20T10:03:50;3.20;;;1.90;;
7807;SDS011;3949;49.254;8.894;2023-12-20T10:06:16;4.73;;;1.80;;
7807;SDS011;3949;49.254;8.894;2023-12-20T10:08:42;2.00;;;1.80;;
7807;SDS011;3949;49.254;8.894;2023-12-20T10:11:08;3.50;;;1.53;;
7807;SDS011;3949;49.254;8.894;2023-12-20T10:13:38;1.83;;;1.70;;
7807;SDS011;3949;49.254;8.894;2023-12-20T10:16:05;6.53;;;1.80;;
7807;SDS011;3949;49.254;8.894;2023-12-20T10:18:35;2.67;;;1.50;;
7807;SDS011;3949;49.254;8.894;2023-12-20T10:21:01;2.97;;;1.67;;
7807;SDS011;3949;49.254;8.894;2023-12-20T10:23:28;2.93;;;1.77;;
7807;SDS011;3949;49.254;8.894;2023-12-20T10:25:57;2.20;;;1.50;;
7807;SDS011;3949;49.254;8.894;2023-12-20T10:28:23;6.07;;;1.83;;
7807;SDS011;3949;49.254;8.894;2023-12-20T10:30:52;2.10;;;1.50;;
7807;SDS011;3949;49.254;8.894;2023-12-20T10:33:25;4.30;;;1.50;;
7807;SDS011;3949;49.254;8.894;2023-12-20T10:35:52;3.40;;;1.50;;
7807;SDS011;3949;49.254;8.894;2023-12-20T10:38:19;3.13;;;1.87;;
7807;SDS011;3949;49.254;8.894;2023-12-20T10:40:45;3.13;;;1.40;;
7807;SDS011;3949;49.254;8.894;2023-12-20T10:43:12;3.97;;;1.53;;
7807;SDS011;3949;49.254;8.894;2023-12-20T10:45:41;2.63;;;1.90;;
7807;SDS011;3949;49.254;8.894;2023-12-20T10:48:11;4.57;;;1.57;;
7807;SDS011;3949;49.254;8.894;2023-12-20T10:50:37;5.03;;;1.50;;
7807;SDS011;3949;49.254;8.894;2023-12-20T10:53:03;3.07;;;1.80;;
7807;SDS011;3949;49.254;8.894;2023-12-20T10:55:29;4.83;;;1.87;;
7807;SDS011;3949;49.254;8.894;2023-12-20T10:58:00;4.80;;;1.60;;
7807;SDS011;3949;49.254;8.894;2023-12-20T11:00:26;3.20;;;1.73;;
7807;SDS011;3949;49.254;8.894;2023-12-20T11:02:55;2.87;;;1.47;;
7807;SDS011;3949;49.254;8.894;2023-12-20T11:05:35;3.00;;;1.60;;
7807;SDS011;3949;49.254;8.894;2023-12-20T11:08:05;2.70;;;1.63;;
7807;SDS011;3949;49.254;8.894;2023-12-20T11:10:38;3.60;;;1.33;;
7807;SDS011;3949;49.254;8.894;2023-12-20T11:13:12;2.50;;;1.20;;
7807;SDS011;3949;49.254;8.894;2023-12-20T11:15:39;3.20;;;1.70;;
7807;SDS011;3949;49.254;8.894;2023-12-20T11:18:05;3.43;;;2.00;;
7807;SDS011;3949;49.254;8.894;2023-12-20T11:20:35;1.50;;;1.40;;
7807;SDS011;3949;49.254;8.894;2023-12-20T11:23:02;5.90;;;1.90;;
7807;SDS011;3949;49.254;8.894;2023-12-20T11:25:28;5.03;;;1.80;;
7807;SDS011;3949;49.254;8.894;2023-12-20T11:28:06;2.80;;;1.73;;
7807;SDS011;3949;49.254;8.894;2023-12-20T11:30:46;3.47;;;1.80;;
7807;SDS011;3949;49.254;8.894;2023-12-20T11:33:13;5.13;;;2.00;;
7807;SDS011;3949;49.254;8.894;2023-12-20T11:35:40;7.03;;;2.77;;
7807;SDS011;3949;49.254;8.894;2023-12-20T11:38:09;5.27;;;2.33;;
7807;SDS011;3949;49.254;8.894;2023-12-20T11:40:36;2.97;;;2.00;;
7807;SDS011;3949;49.254;8.894;2023-12-20T11:43:02;4.07;;;2.03;;
7807;SDS011;3949;49.254;8.894;2023-12-20T11:45:29;4.73;;;1.90;;
7807;SDS011;3949;49.254;8.894;2023-12-20T11:47:56;3.83;;;1.90;;
7807;SDS011;3949;49.254;8.894;2023-12-20T11:50:23;2.43;;;2.20;;
7807;SDS011;3949;49.254;8.894;2023-12-20T11:52:49;4.07;;;2.00;;
7807;SDS011;3949;49.254;8.894;2023-12-20T11:55:16;3.03;;;2.37;;
7807;SDS011;3949;49.254;8.894;2023-12-20T11:57:42;4.40;;;1.90;;
7807;SDS011;3949;49.254;8.894;2023-12-20T12:00:09;2.87;;;2.10;;
7807;SDS011;3949;49.254;8.894;2023-12-20T12:02:36;3.47;;;1.93;;
7807;SDS011;3949;49.254;8.894;2023-12-20T12:05:02;3.33;;;2.10;;
7807;SDS011;3949;49.254;8.894;2023-12-20T12:07:30;4.53;;;2.00;;
7807;SDS011;3949;49.254;8.894;2023-12-20T12:09:56;4.27;;;2.03;;
7807;SDS011;3949;49.254;8.894;2023-12-20T12:12:23;4.40;;;2.07;;
7807;SDS011;3949;49.254;8.894;2023-12-20T12:14:50;5.00;;;2.03;;
7807;SDS011;3949;49.254;8.894;2023-12-20T12:17:16;3.97;;;1.80;;
7807;SDS011;3949;49.254;8.894;2023-12-20T12:19:42;7.53;;;2.30;;
7807;SDS011;3949;49.254;8.894;2023-12-20T12:22:17;4.03;;;1.80;;
7807;SDS011;3949;49.254;8.894;2023-12-20T12:24:45;3.43;;;1.90;;
7807;SDS011;3949;49.254;8.894;2023-12-20T12:27:12;6.90;;;2.70;;
7807;SDS011;3949;49.254;8.894;2023-12-20T12:29:38;4.97;;;2.10;;
7807;SDS011;3949;49.254;8.894;2023-12-20T12:32:04;5.03;;;2.27;;
7807;SDS011;3949;49.254;8.894;2023-12-20T12:34:31;5.30;;;2.10;;
7807;SDS011;3949;49.254;8.894;2023-12-20T12:36:57;4.23;;;2.20;;
7807;SDS011;3949;49.254;8.894;2023-12-20T12:39:24;5.00;;;3.10;;
7807;SDS011;3949;49.254;8.894;2023-12-20T12:41:50;4.40;;;2.33;;
7807;SDS011;3949;49.254;8.894;2023-12-20T12:44:16;3.17;;;1.80;;
7807;SDS011;3949;49.254;8.894;2023-12-20T12:46:43;5.97;;;2.23;;
7807;SDS011;3949;49.254;8.894;2023-12-20T12:49:09;2.70;;;1.90;;
7807;SDS011;3949;49.254;8.894;2023-12-20T12:51:35;3.17;;;2.00;;
7807;SDS011;3949;49.254;8.894;2023-12-20T12:54:01;2.37;;;1.80;;
7807;SDS011;3949;49.254;8.894;2023-12-20T12:56:27;7.20;;;2.20;;
7807;SDS011;3949;49.254;8.894;2023-12-20T12:58:53;4.17;;;2.20;;
7807;SDS011;3949;49.254;8.894;2023-12-20T13:01:19;3.30;;;2.10;;
7807;SDS011;3949;49.254;8.894;2023-12-20T13:03:45;4.50;;;1.90;;
7807;SDS011;3949;49.254;8.894;2023-12-20T13:06:11;5.23;;;2.20;;
7807;SDS011;3949;49.254;8.894;2023-12-20T13:08:37;4.20;;;2.30;;
7807;SDS011;3949;49.254;8.894;2023-12-20T13:11:03;4.53;;;2.20;;
7807;SDS011;3949;49.254;8.894;2023-12-20T13:13:30;4.27;;;2.00;;
7807;SDS011;3949;49.254;8.894;2023-12-20T13:15:56;5.87;;;2.03;;
7807;SDS011;3949;49.254;8.894;2023-12-20T13:18:22;8.43;;;4.30;;
7807;SDS011;3949;49.254;8.894;2023-12-20T13:20:49;10.37;;;5.47;;
7807;SDS011;3949;49.254;8.894;2023-12-20T13:23:15;7.80;;;3.87;;
7807;SDS011;3949;49.254;8.894;2023-12-20T13:25:43;4.43;;;2.00;;
7807;SDS011;3949;49.254;8.894;2023-12-20T13:28:12;6.43;;;2.23;;
7807;SDS011;3949;49.254;8.894;2023-12-20T13:30:38;4.10;;;2.23;;
7807;SDS011;3949;49.254;8.894;2023-12-20T13:33:05;4.63;;;2.33;;
7807;SDS011;3949;49.254;8.894;2023-12-20T13:35:31;3.90;;;2.10;;
7807;SDS011;3949;49.254;8.894;2023-12-20T13:37:57;5.23;;;2.30;;
7807;SDS011;3949;49.254;8.894;2023-12-20T13:40:24;2.20;;;2.00;;
7807;SDS011;3949;49.254;8.894;2023-12-20T13:42:50;3.13;;;2.10;;
7807;SDS011;3949;49.254;8.894;2023-12-20T13:45:16;2.97;;;2.20;;
7807;SDS011;3949;49.254;8.894;2023-12-20T13:47:42;4.67;;;2.20;;
7807;SDS011;3949;49.254;8.894;2023-12-20T13:50:08;6.97;;;3.33;;
7807;SDS011;3949;49.254;8.894;2023-12-20T13:52:34;6.20;;;2.60;;
7807;SDS011;3949;49.254;8.894;2023-12-20T13:55:01;5.17;;;2.50;;
7807;SDS011;3949;49.254;8.894;2023-12-20T13:57:27;2.73;;;2.13;;
7807;SDS011;3949;49.254;8.894;2023-12-20T13:59:54;5.17;;;2.37;;
7807;SDS011;3949;49.254;8.894;2023-12-20T14:02:22;6.20;;;2.63;;
7807;SDS011;3949;49.254;8.894;2023-12-20T14:04:48;5.60;;;2.40;;
7807;SDS011;3949;49.254;8.894;2023-12-20T14:07:14;6.03;;;2.30;;
7807;SDS011;3949;49.254;8.894;2023-12-20T14:09:41;5.73;;;2.53;;
7807;SDS011;3949;49.254;8.894;2023-12-20T14:12:10;3.80;;;2.23;;
7807;SDS011;3949;49.254;8.894;2023-12-20T14:14:36;6.33;;;2.47;;
7807;SDS011;3949;49.254;8.894;2023-12-20T14:17:02;6.40;;;2.70;;
7807;SDS011;3949;49.254;8.894;2023-12-20T14:19:29;4.10;;;2.00;;
7807;SDS011;3949;49.254;8.894;2023-12-20T14:21:55;3.90;;;2.60;;
7807;SDS011;3949;49.254;8.894;2023-12-20T14:24:21;4.70;;;2.30;;
7807;SDS011;3949;49.254;8.894;2023-12-20T14:26:47;4.47;;;2.70;;
7807;SDS011;3949;49.254;8.894;2023-12-20T14:29:13;3.90;;;2.97;;
7807;SDS011;3949;49.254;8.894;2023-12-20T14:31:39;5.23;;;2.67;;
7807;SDS011;3949;49.254;8.894;2023-12-20T14:34:05;4.23;;;2.17;;
7807;SDS011;3949;49.254;8.894;2023-12-20T14:36:31;3.30;;;2.60;;
7807;SDS011;3949;49.254;8.894;2023-12-20T14:38:58;3.93;;;2.57;;
7807;SDS011;3949;49.254;8.894;2023-12-20T14:41:24;5.83;;;2.80;;
7807;SDS011;3949;49.254;8.894;2023-12-20T14:43:50;3.40;;;2.43;;
7807;SDS011;3949;49.254;8.894;2023-12-20T14:46:18;7.50;;;2.83;;
7807;SDS011;3949;49.254;8.894;2023-12-20T14:48:44;4.63;;;2.00;;
7807;SDS011;3949;49.254;8.894;2023-12-20T14:51:10;6.20;;;2.00;;
7807;SDS011;3949;49.254;8.894;2023-12-20T14:53:37;7.03;;;2.70;;
7807;SDS011;3949;49.254;8.894;2023-12-20T14:56:04;6.33;;;2.17;;
7807;SDS011;3949;49.254;8.894;2023-12-20T14:58:30;2.83;;;2.10;;
7807;SDS011;3949;49.254;8.894;2023-12-20T15:00:57;4.30;;;2.03;;
7807;SDS011;3949;49.254;8.894;2023-12-20T15:03:23;4.90;;;2.80;;
7807;SDS011;3949;49.254;8.894;2023-12-20T15:05:48;9.13;;;2.70;;
7807;SDS011;3949;49.254;8.894;2023-12-20T15:08:15;6.13;;;2.57;;
7807;SDS011;3949;49.254;8.894;2023-12-20T15:10:41;7.70;;;2.57;;